Time;durP1;ratioP1;P1;durP2;ratioP2;P2;SDS_P1;SDS_P2;PMS_P1;PMS_P2;Temp;Humidity;BMP_temperature;BMP_pressure;BME280_temperature;BME280_humidity;BME280_pressure;Samples;Min_cycle;Max_cycle;Signal;HPM_P1;HPM_P2
2022/12/11 00:00:18;;;;;;;45.33;10.70;;;1.60;95.00;;;;;;5114474;28;20035;-77
2022/12/11 00:02:44;;;;;;;30.02;9.35;;;1.60;95.10;;;;;;5097529;28;20050;-77
2022/12/11 00:05:09;;;;;;;29.42;10.93;;;1.60;95.20;;;;;;5114474;28;20016;-77
2022/12/11 00:07:35;;;;;;;24.13;8.60;;;1.60;95.20;;;;;;5114342;28;20479;-77
2022/12/11 00:10:00;;;;;;;29.85;9.23;;;1.60;95.30;;;;;;5115371;28;20034;-77
2022/12/11 00:12:26;;;;;;;23.40;7.00;;;1.60;95.20;;;;;;5097377;28;20028;-77
2022/12/11 00:14:52;;;;;;;44.47;12.00;;;1.60;95.10;;;;;;5115208;28;20028;-77
2022/12/11 00:17:17;;;;;;;32.72;10.65;;;1.70;95.20;;;;;;5115153;28;20105;-77
2022/12/11 00:19:44;;;;;;;64.65;12.73;;;1.70;95.00;;;;;;5097212;28;20051;-77
2022/12/11 00:22:09;;;;;;;39.05;10.85;;;1.70;95.00;;;;;;5115144;28;20039;-77
2022/12/11 00:24:35;;;;;;;39.47;10.70;;;1.80;94.90;;;;;;5114164;28;20024;-77
2022/12/11 00:27:00;;;;;;;39.85;9.65;;;1.80;94.80;;;;;;5114951;28;20494;-77
2022/12/11 00:29:26;;;;;;;40.95;10.55;;;1.80;94.80;;;;;;5097012;28;20028;-77
2022/12/11 00:31:52;;;;;;;36.17;10.02;;;1.80;94.80;;;;;;5114886;28;20066;-77
2022/12/11 00:34:17;;;;;;;38.47;11.18;;;1.80;94.80;;;;;;5113905;28;20062;-77
2022/12/11 00:36:43;;;;;;;44.45;11.73;;;1.80;94.80;;;;;;5113853;28;20032;-77
2022/12/11 00:39:08;;;;;;;27.17;7.40;;;1.80;94.80;;;;;;5113790;28;20067;-77
2022/12/11 00:41:34;;;;;;;49.72;11.55;;;1.80;94.70;;;;;;5113719;28;20036;-77
2022/12/11 00:44:00;;;;;;;53.60;12.77;;;1.80;94.80;;;;;;5114636;28;20032;-77
2022/12/11 00:46:26;;;;;;;45.58;10.75;;;1.80;94.80;;;;;;5113591;28;20043;-77
2022/12/11 00:48:52;;;;;;;33.03;9.88;;;1.80;94.80;;;;;;5113669;28;20115;-77
2022/12/11 00:51:18;;;;;;;40.28;11.25;;;1.80;94.70;;;;;;5096564;28;20082;-77
2022/12/11 00:53:43;;;;;;;44.33;10.63;;;1.80;94.80;;;;;;5113614;28;20028;-77
2022/12/11 00:56:12;;;;;;;39.55;9.55;;;1.90;94.80;;;;;;5113527;28;20107;-77
2022/12/11 00:58:37;;;;;;;36.55;10.32;;;1.90;94.70;;;;;;5096754;28;20035;-77
2022/12/11 01:01:12;;;;;;;30.90;9.30;;;1.90;94.70;;;;;;5114329;28;20032;-77
2022/12/11 01:03:38;;;;;;;53.42;11.93;;;1.90;94.70;;;;;;5113797;28;20023;-77
2022/12/11 01:06:04;;;;;;;44.88;12.43;;;1.90;94.70;;;;;;5113246;28;20054;-77
2022/12/11 01:08:30;;;;;;;43.28;10.50;;;1.90;94.70;;;;;;5114152;28;20024;-77
2022/12/11 01:11:07;;;;;;;37.08;10.60;;;1.90;94.70;;;;;;5113290;28;20429;-77
2022/12/11 01:13:33;;;;;;;44.47;9.32;;;1.90;94.80;;;;;;5113175;28;20024;-77
2022/12/11 01:15:59;;;;;;;43.78;12.30;;;1.90;94.80;;;;;;5114123;28;20028;-77
2022/12/11 01:18:25;;;;;;;32.45;9.75;;;1.90;94.80;;;;;;5113165;28;20136;-77
2022/12/11 01:20:51;;;;;;;44.55;12.20;;;1.90;94.90;;;;;;5112998;28;20035;-77
2022/12/11 01:23:16;;;;;;;47.45;13.07;;;1.90;94.90;;;;;;5113992;28;20024;-77
2022/12/11 01:25:42;;;;;;;27.25;8.30;;;1.90;94.90;;;;;;5113017;28;20028;-77
2022/12/11 01:28:08;;;;;;;21.92;7.57;;;1.80;94.90;;;;;;5113942;28;20065;-77
2022/12/11 01:30:35;;;;;;;34.70;9.95;;;1.80;94.90;;;;;;5112907;28;20365;-77
2022/12/11 01:33:01;;;;;;;46.65;11.40;;;1.80;95.00;;;;;;5112789;28;20543;-77
2022/12/11 01:35:26;;;;;;;26.45;8.85;;;1.80;95.00;;;;;;5112766;28;20032;-77
2022/12/11 01:37:52;;;;;;;34.97;9.43;;;1.80;95.10;;;;;;5095927;28;20069;-78
2022/12/11 01:40:19;;;;;;;26.40;8.73;;;1.80;95.10;;;;;;5112752;28;20024;-78
2022/12/11 01:42:45;;;;;;;27.27;9.32;;;1.80;95.20;;;;;;5113679;28;20031;-78
2022/12/11 01:45:31;;;;;;;31.17;9.38;;;1.80;95.20;;;;;;5112792;28;20024;-78
2022/12/11 01:48:02;;;;;;;44.10;11.18;;;1.80;95.30;;;;;;5113669;28;20081;-78
2022/12/11 01:50:31;;;;;;;35.43;9.47;;;1.80;95.30;;;;;;5113380;28;20067;-78
2022/12/11 01:52:57;;;;;;;46.65;11.75;;;1.80;95.30;;;;;;5112596;28;20024;-78
2022/12/11 01:55:23;;;;;;;28.98;10.13;;;1.80;95.40;;;;;;5113574;28;20024;-78
2022/12/11 01:57:50;;;;;;;38.67;11.18;;;1.80;95.30;;;;;;5112635;28;20438;-78
2022/12/11 02:00:15;;;;;;;48.92;12.25;;;1.80;95.30;;;;;;5095680;28;20028;-78
2022/12/11 02:02:41;;;;;;;38.15;11.40;;;1.80;95.30;;;;;;5113517;28;20024;-78
2022/12/11 02:05:07;;;;;;;33.92;10.40;;;1.80;95.30;;;;;;5113442;28;20054;-78
2022/12/11 02:07:46;;;;;;;30.23;9.40;;;1.80;95.20;;;;;;5112483;28;20021;-78
2022/12/11 02:10:13;;;;;;;30.23;9.18;;;1.80;95.20;;;;;;5113442;28;20024;-78
2022/12/11 02:12:47;;;;;;;36.33;10.00;;;1.90;95.30;;;;;;5112506;28;20032;-78
2022/12/11 02:15:22;;;;;;;40.50;11.15;;;1.90;95.10;;;;;;5114309;28;20031;-78
2022/12/11 02:17:51;;;;;;;34.95;8.70;;;1.90;95.10;;;;;;5117575;28;20020;-78
2022/12/11 02:20:47;;;;;;;33.08;9.98;;;1.90;95.10;;;;;;5117358;28;20034;-78
2022/12/11 02:23:37;;;;;;;19.05;7.72;;;1.90;95.00;;;;;;5116482;28;20062;-78
2022/12/11 02:26:18;;;;;;;23.05;7.30;;;1.90;95.00;;;;;;5117338;28;20016;-78
2022/12/11 02:28:58;;;;;;;41.08;10.65;;;1.90;95.10;;;;;;5116298;28;20021;-78
2022/12/11 02:31:36;;;;;;;38.88;10.95;;;1.90;95.10;;;;;;5117378;28;20034;-78
2022/12/11 02:34:27;;;;;;;33.67;11.30;;;1.90;95.00;;;;;;5117258;28;20027;-78
2022/12/11 02:36:59;;;;;;;30.00;9.57;;;1.90;95.00;;;;;;5102634;28;20409;-78
2022/12/11 02:39:26;;;;;;;47.97;11.40;;;2.00;95.10;;;;;;5117086;28;20024;-78
2022/12/11 02:41:53;;;;;;;40.17;10.85;;;1.90;95.00;;;;;;5116126;28;20103;-78
2022/12/11 02:44:24;;;;;;;39.83;13.68;;;2.00;95.00;;;;;;5116012;28;20084;-78
2022/12/11 02:46:51;;;;;;;44.30;11.25;;;2.00;94.90;;;;;;5117045;28;20045;-78
2022/12/11 02:49:17;;;;;;;39.83;11.95;;;1.90;94.90;;;;;;5115987;28;20020;-78
2022/12/11 02:51:43;;;;;;;50.88;14.02;;;2.00;95.00;;;;;;5115753;28;20040;-78
2022/12/11 02:54:20;;;;;;;27.15;10.90;;;2.00;94.90;;;;;;5115819;28;20130;-78
2022/12/11 02:56:50;;;;;;;38.83;12.00;;;2.00;94.90;;;;;;5116811;28;20021;-78
2022/12/11 02:59:25;;;;;;;35.60;10.30;;;2.10;94.90;;;;;;5116719;28;20013;-78
2022/12/11 03:01:51;;;;;;;32.05;9.55;;;2.00;94.80;;;;;;5116884;28;20020;-78
2022/12/11 03:04:17;;;;;;;37.15;9.38;;;2.00;94.70;;;;;;5115695;28;20024;-78
2022/12/11 03:06:47;;;;;;;45.10;12.57;;;2.00;94.70;;;;;;5116568;28;20046;-78
2022/12/11 03:09:12;;;;;;;30.45;10.98;;;2.00;94.80;;;;;;5116643;28;20023;-78
2022/12/11 03:11:38;;;;;;;36.33;11.38;;;2.00;94.80;;;;;;5115627;28;20032;-78
2022/12/11 03:14:05;;;;;;;39.90;11.85;;;2.10;94.80;;;;;;5098491;28;20035;-78
2022/12/11 03:16:37;;;;;;;40.20;12.00;;;2.10;94.70;;;;;;5115461;28;20020;-78
2022/12/11 03:19:19;;;;;;;44.13;12.07;;;2.10;94.60;;;;;;5115335;28;20024;-78
2022/12/11 03:22:17;;;;;;;31.60;9.85;;;2.10;94.60;;;;;;5116290;28;20046;-78
2022/12/11 03:24:54;;;;;;;30.83;9.77;;;2.10;94.50;;;;;;5115608;28;20047;-78
2022/12/11 03:27:40;;;;;;;35.60;9.20;;;2.20;94.60;;;;;;5115920;28;20082;-78
2022/12/11 03:30:10;;;;;;;40.78;11.63;;;2.10;94.80;;;;;;5116177;28;20020;-78
2022/12/11 03:32:49;;;;;;;34.13;9.07;;;2.10;94.50;;;;;;5115207;28;20161;-78
2022/12/11 03:35:43;;;;;;;40.08;10.48;;;2.10;94.40;;;;;;5116069;28;20028;-78
2022/12/11 03:38:33;;;;;;;22.67;7.18;;;2.10;94.50;;;;;;5116094;28;20043;-78
2022/12/11 03:41:02;;;;;;;34.47;10.13;;;2.10;94.40;;;;;;5074194;28;20036;-78
2022/12/11 03:43:30;;;;;;;33.50;11.05;;;2.10;94.50;;;;;;5115074;28;20097;-78
2022/12/11 03:45:58;;;;;;;35.22;11.02;;;2.10;94.50;;;;;;5115900;28;20050;-77
2022/12/11 03:48:29;;;;;;;34.65;11.68;;;2.20;94.50;;;;;;5115810;28;20065;-78
2022/12/11 03:50:57;;;;;;;24.75;7.97;;;2.20;94.50;;;;;;5115639;28;20040;-78
2022/12/11 03:53:24;;;;;;;37.88;11.93;;;2.20;94.50;;;;;;5115712;28;20035;-78
2022/12/11 03:55:50;;;;;;;37.42;10.48;;;2.10;94.50;;;;;;5115633;28;20485;-78
2022/12/11 03:58:16;;;;;;;39.00;12.25;;;2.20;94.80;;;;;;5114531;28;20024;-78
2022/12/11 04:00:42;;;;;;;31.70;11.13;;;2.20;94.50;;;;;;5097565;28;20099;-78
2022/12/11 04:03:14;;;;;;;31.92;9.65;;;2.20;94.50;;;;;;5114493;28;20050;-78
2022/12/11 04:05:43;;;;;;;40.60;10.45;;;2.20;94.40;;;;;;5114648;28;20017;-78
2022/12/11 04:08:09;;;;;;;35.60;10.98;;;2.20;94.40;;;;;;5114303;28;20027;-78
2022/12/11 04:10:35;;;;;;;43.30;13.07;;;2.20;94.40;;;;;;5115386;28;20035;-78
2022/12/11 04:13:00;;;;;;;33.60;10.38;;;2.20;94.40;;;;;;5114367;28;20025;-78
2022/12/11 04:15:26;;;;;;;37.78;11.63;;;2.30;94.30;;;;;;5114385;28;20059;-78
2022/12/11 04:26:10;;;;;;;30.38;10.85;;;2.30;94.00;;;;;;5114565;28;20100;-78
2022/12/11 04:28:36;;;;;;;30.65;10.05;;;2.40;94.00;;;;;;5115050;28;20059;-78
2022/12/11 04:31:02;;;;;;;38.53;11.30;;;2.40;94.00;;;;;;5113920;28;20032;-78
2022/12/11 04:33:28;;;;;;;36.33;11.10;;;2.40;93.90;;;;;;5114894;28;20032;-78
2022/12/11 04:35:57;;;;;;;33.22;10.27;;;2.40;93.80;;;;;;5113979;28;20039;-78
2022/12/11 04:38:23;;;;;;;43.85;10.90;;;2.40;93.80;;;;;;5114112;28;20024;-78
2022/12/11 04:40:48;;;;;;;32.80;10.18;;;2.40;93.80;;;;;;5114697;28;20111;-78
2022/12/11 04:43:14;;;;;;;32.65;10.07;;;2.50;93.70;;;;;;5113810;28;20066;-78
2022/12/11 04:45:39;;;;;;;34.17;11.55;;;2.50;94.10;;;;;;5113799;28;20024;-78
2022/12/11 04:48:05;;;;;;;37.70;10.35;;;2.50;93.70;;;;;;5080010;28;20024;-78
2022/12/11 04:50:31;;;;;;;28.80;10.07;;;2.50;93.50;;;;;;5114396;28;20044;-78
2022/12/11 04:52:56;;;;;;;32.75;10.60;;;2.40;93.60;;;;;;5113645;28;20032;-78
2022/12/11 04:55:22;;;;;;;30.60;9.45;;;2.50;94.10;;;;;;5113622;28;20114;-77
2022/12/11 04:57:48;;;;;;;25.73;8.90;;;2.50;93.60;;;;;;5113434;28;20028;-77
2022/12/11 05:00:15;;;;;;;25.67;9.20;;;2.50;93.50;;;;;;5114326;28;20081;-78
2022/12/11 05:02:41;;;;;;;25.60;9.57;;;2.50;93.50;;;;;;5114363;28;20028;-78
2022/12/11 05:05:09;;;;;;;23.95;8.90;;;2.50;93.40;;;;;;5114469;28;20020;-78
2022/12/11 05:07:36;;;;;;;28.67;9.65;;;2.50;93.40;;;;;;5113147;28;20020;-78
2022/12/11 05:10:02;;;;;;;26.15;9.15;;;2.50;93.40;;;;;;5114255;28;20016;-78
2022/12/11 05:12:28;;;;;;;27.65;9.50;;;2.60;93.40;;;;;;5114125;28;20045;-78
2022/12/11 05:14:54;;;;;;;23.08;8.30;;;2.60;93.40;;;;;;5114177;28;20039;-78
2022/12/11 05:17:21;;;;;;;17.60;7.07;;;2.60;93.30;;;;;;5113095;28;20509;-78
2022/12/11 05:19:48;;;;;;;22.13;8.90;;;2.60;93.10;;;;;;5113064;28;20054;-78
2022/12/11 05:22:14;;;;;;;18.55;6.20;;;2.60;93.10;;;;;;5113015;28;20020;-78
2022/12/11 05:24:40;;;;;;;20.92;7.32;;;2.60;93.00;;;;;;5114139;28;20024;-78
2022/12/11 05:27:05;;;;;;;18.83;6.53;;;2.60;93.00;;;;;;5113971;28;20059;-78
2022/12/11 05:29:31;;;;;;;17.17;6.97;;;2.70;93.00;;;;;;5113944;28;20016;-78
2022/12/11 05:31:57;;;;;;;17.15;6.75;;;2.70;93.00;;;;;;5113007;28;20032;-78
2022/12/11 05:34:23;;;;;;;18.52;7.10;;;2.70;92.80;;;;;;5112805;28;20394;-78
2022/12/11 05:36:49;;;;;;;18.95;7.43;;;2.70;92.80;;;;;;5112947;28;20020;-78
2022/12/11 05:39:15;;;;;;;19.30;6.95;;;2.70;92.80;;;;;;5112773;28;20017;-78
2022/12/11 05:41:40;;;;;;;19.27;7.45;;;2.70;92.60;;;;;;5113872;28;20031;-78
2022/12/11 05:44:06;;;;;;;19.48;8.38;;;2.70;92.90;;;;;;5112833;28;20041;-78
2022/12/11 05:46:32;;;;;;;19.15;6.97;;;2.70;92.60;;;;;;5112832;28;20518;-78
2022/12/11 05:49:00;;;;;;;15.52;5.90;;;2.70;92.50;;;;;;5113539;28;20039;-78
2022/12/11 05:51:27;;;;;;;21.77;7.43;;;2.70;92.40;;;;;;5113339;28;20055;-78
2022/12/11 05:53:54;;;;;;;16.08;6.05;;;2.70;92.40;;;;;;5113600;28;20040;-78
2022/12/11 05:56:23;;;;;;;22.92;6.70;;;2.70;92.90;;;;;;5095680;28;20062;-78
2022/12/11 05:58:49;;;;;;;22.27;6.97;;;2.70;92.60;;;;;;5113495;28;20035;-78
2022/12/11 06:01:21;;;;;;;18.00;6.32;;;2.80;92.60;;;;;;5112516;28;20088;-79
2022/12/11 06:03:47;;;;;;;18.67;6.70;;;2.80;92.70;;;;;;5113698;28;20040;-78
2022/12/11 06:06:13;;;;;;;19.90;7.53;;;2.80;92.60;;;;;;5113473;28;20082;-78
2022/12/11 06:08:39;;;;;;;18.10;7.20;;;2.80;92.50;;;;;;5113423;28;20084;-78
2022/12/11 06:11:05;;;;;;;14.68;5.80;;;2.80;92.50;;;;;;5113457;28;20032;-78
2022/12/11 06:13:31;;;;;;;16.90;6.63;;;2.80;92.40;;;;;;5112451;28;20382;-78
2022/12/11 06:16:04;;;;;;;17.65;6.00;;;2.80;92.40;;;;;;5112385;28;20479;-78
2022/12/11 06:18:30;;;;;;;21.23;7.13;;;2.80;92.30;;;;;;5095583;28;20032;-78
2022/12/11 06:20:55;;;;;;;15.57;6.95;;;2.80;92.40;;;;;;5112305;28;20127;-77
2022/12/11 06:23:21;;;;;;;15.40;6.45;;;2.80;92.40;;;;;;5112318;28;20055;-77
2022/12/11 06:25:47;;;;;;;17.02;5.78;;;2.80;92.30;;;;;;5112335;28;20042;-78
2022/12/11 06:28:13;;;;;;;18.75;7.03;;;2.80;92.30;;;;;;5113381;28;20035;-78
2022/12/11 06:30:38;;;;;;;27.90;9.18;;;2.70;92.30;;;;;;5112478;28;20121;-77
2022/12/11 06:33:04;;;;;;;31.42;9.77;;;2.70;92.40;;;;;;5095375;28;20036;-77
2022/12/11 06:35:30;;;;;;;28.00;9.48;;;2.70;92.50;;;;;;5113214;28;20020;-78
2022/12/11 06:37:56;;;;;;;18.77;8.50;;;2.70;92.60;;;;;;5112245;28;20546;-78
2022/12/11 06:40:21;;;;;;;20.40;6.63;;;2.70;92.70;;;;;;5095193;28;20024;-78
2022/12/11 06:42:47;;;;;;;30.20;8.75;;;2.60;92.70;;;;;;5113125;28;20024;-78
2022/12/11 06:45:12;;;;;;;24.20;8.70;;;2.60;92.70;;;;;;5112154;28;20024;-78
2022/12/11 06:47:38;;;;;;;23.25;7.53;;;2.60;92.70;;;;;;5095227;28;20115;-77
2022/12/11 06:50:04;;;;;;;22.05;8.32;;;2.70;92.70;;;;;;5111926;28;20052;-78
2022/12/11 06:52:30;;;;;;;17.60;7.07;;;2.60;92.60;;;;;;5095362;28;20067;-78
2022/12/11 06:54:56;;;;;;;17.25;6.22;;;2.60;92.30;;;;;;5112089;28;20016;-78
2022/12/11 06:57:21;;;;;;;21.52;8.43;;;2.60;92.10;;;;;;5113013;28;20058;-78
2022/12/11 06:59:48;;;;;;;11.20;4.85;;;2.50;91.70;;;;;;5111893;28;20028;-78
2022/12/11 07:02:14;;;;;;;17.90;6.50;;;2.50;91.70;;;;;;5116158;28;20021;-78
2022/12/11 07:04:40;;;;;;;18.35;7.00;;;2.40;91.30;;;;;;5116673;28;20051;-78
2022/12/11 07:07:07;;;;;;;16.13;6.47;;;2.40;91.20;;;;;;5116626;28;20028;-77
2022/12/11 07:09:33;;;;;;;12.90;5.28;;;2.40;91.10;;;;;;5115485;28;20091;-78
2022/12/11 07:11:58;;;;;;;16.50;6.25;;;2.30;90.60;;;;;;5115594;28;20028;-78
2022/12/11 07:14:24;;;;;;;20.38;7.72;;;2.40;91.00;;;;;;5098721;28;20036;-78
2022/12/11 07:16:50;;;;;;;18.23;6.88;;;2.40;91.10;;;;;;5116426;28;20024;-77
2022/12/11 07:19:15;;;;;;;18.33;7.32;;;2.40;91.20;;;;;;5115437;28;20031;-78
2022/12/11 07:21:41;;;;;;;15.70;6.30;;;2.50;91.30;;;;;;5115391;28;20032;-78
2022/12/11 07:24:07;;;;;;;21.58;7.75;;;2.50;91.30;;;;;;5115335;28;20049;-77
2022/12/11 07:26:33;;;;;;;19.48;7.63;;;2.50;91.30;;;;;;5116233;28;20016;-77
2022/12/11 07:28:59;;;;;;;19.38;7.15;;;2.60;91.40;;;;;;5115372;28;20021;-77
2022/12/11 07:31:26;;;;;;;18.85;7.35;;;2.60;91.40;;;;;;5115200;28;20028;-77
2022/12/11 07:34:00;;;;;;;18.92;7.20;;;2.60;91.30;;;;;;5115081;28;20028;-78
2022/12/11 07:36:27;;;;;;;18.85;6.70;;;2.60;91.40;;;;;;5116090;28;20088;-78
2022/12/11 07:38:53;;;;;;;18.63;6.93;;;2.60;91.40;;;;;;5098037;28;20035;-77
2022/12/11 07:41:20;;;;;;;20.67;8.05;;;2.70;91.40;;;;;;5115896;28;20378;-77
2022/12/11 07:43:46;;;;;;;16.63;7.03;;;2.70;91.30;;;;;;5114955;28;20088;-77
2022/12/11 07:46:16;;;;;;;19.42;7.38;;;2.70;91.30;;;;;;5115895;28;20020;-77
2022/12/11 07:48:44;;;;;;;19.65;7.28;;;2.70;91.40;;;;;;5115860;28;20035;-78
2022/12/11 07:51:30;;;;;;;32.97;8.15;;;2.70;91.30;;;;;;5115589;28;20052;-77
2022/12/11 07:54:02;;;;;;;16.65;6.93;;;2.70;91.30;;;;;;5114713;28;20024;-77
2022/12/11 07:56:29;;;;;;;19.98;6.25;;;2.70;91.10;;;;;;5115744;28;20047;-78
2022/12/11 07:58:55;;;;;;;18.33;6.72;;;2.60;90.80;;;;;;5115500;28;20080;-78
2022/12/11 08:01:24;;;;;;;17.63;6.60;;;2.60;90.50;;;;;;5115381;28;20024;-77
2022/12/11 08:03:50;;;;;;;19.92;7.47;;;2.60;90.80;;;;;;5115666;28;20019;-78
2022/12/11 08:06:16;;;;;;;20.92;6.95;;;2.70;90.90;;;;;;5115458;28;20012;-79
2022/12/11 08:08:43;;;;;;;17.92;7.32;;;2.70;91.00;;;;;;5115360;28;20042;-78
2022/12/11 08:11:11;;;;;;;17.60;6.72;;;2.80;91.10;;;;;;5114425;28;20029;-78
2022/12/11 08:13:38;;;;;;;16.55;6.85;;;2.80;90.90;;;;;;5113129;28;20034;-78
2022/12/11 08:16:06;;;;;;;18.50;6.40;;;2.80;91.30;;;;;;5114215;28;20077;-78
2022/12/11 08:18:33;;;;;;;16.13;7.00;;;2.70;90.70;;;;;;5114284;28;20020;-79
2022/12/11 08:21:07;;;;;;;15.40;6.72;;;2.80;90.80;;;;;;5115080;28;20054;-79
2022/12/11 08:23:33;;;;;;;16.33;6.05;;;2.80;90.60;;;;;;5114116;28;20059;-79
2022/12/11 08:26:02;;;;;;;16.08;6.13;;;2.80;90.60;;;;;;5115073;28;20024;-78
2022/12/11 08:28:28;;;;;;;14.05;5.78;;;2.70;90.40;;;;;;5115059;28;20080;-78
2022/12/11 08:30:54;;;;;;;17.15;7.35;;;2.70;90.50;;;;;;5114988;28;20024;-79
2022/12/11 08:33:19;;;;;;;15.93;5.70;;;2.70;90.40;;;;;;5114957;28;20028;-78
2022/12/11 08:35:45;;;;;;;13.88;5.90;;;2.60;90.60;;;;;;5114009;28;20032;-78
2022/12/11 08:38:11;;;;;;;17.90;7.00;;;2.70;91.00;;;;;;5113926;28;20032;-78
2022/12/11 08:40:36;;;;;;;17.27;6.55;;;2.70;90.50;;;;;;5096799;28;20024;-80
2022/12/11 08:43:02;;;;;;;13.05;6.13;;;2.60;90.10;;;;;;5113861;28;20087;-78
2022/12/11 08:45:28;;;;;;;17.75;6.65;;;2.60;90.30;;;;;;5113845;28;20031;-78
2022/12/11 08:47:53;;;;;;;20.98;8.00;;;2.60;90.60;;;;;;5113748;28;20025;-78
2022/12/11 08:50:19;;;;;;;15.48;7.18;;;2.60;90.60;;;;;;5114424;28;20056;-78
2022/12/11 08:52:45;;;;;;;14.38;5.78;;;2.70;90.80;;;;;;5113515;28;20065;-78
2022/12/11 08:55:11;;;;;;;15.95;6.70;;;2.60;90.40;;;;;;5114579;28;20089;-77
2022/12/11 08:57:38;;;;;;;13.45;5.68;;;2.60;90.30;;;;;;5114598;28;20066;-77
2022/12/11 09:00:05;;;;;;;13.60;6.18;;;2.60;90.60;;;;;;5113493;28;20028;-76
2022/12/11 09:02:31;;;;;;;17.35;6.32;;;2.60;90.90;;;;;;5113457;28;20031;-76
2022/12/11 09:04:56;;;;;;;20.00;7.32;;;2.60;90.80;;;;;;5113321;28;20123;-76
2022/12/11 09:07:22;;;;;;;13.68;5.90;;;2.50;90.80;;;;;;5113409;28;20027;-76
2022/12/11 09:09:48;;;;;;;19.90;8.75;;;2.60;90.90;;;;;;5114189;28;20043;-76
2022/12/11 09:12:13;;;;;;;11.35;5.43;;;2.50;90.30;;;;;;5114203;28;20064;-75
2022/12/11 09:14:39;;;;;;;13.93;5.78;;;2.50;90.20;;;;;;5113259;28;20028;-76
2022/12/11 09:17:05;;;;;;;19.08;7.70;;;2.50;90.00;;;;;;5096154;28;20028;-76
2022/12/11 09:19:30;;;;;;;21.30;8.02;;;2.60;90.20;;;;;;5113095;28;20091;-75
2022/12/11 09:21:56;;;;;;;15.35;6.07;;;2.60;90.30;;;;;;5096094;28;20027;-74
2022/12/11 09:24:21;;;;;;;16.15;6.55;;;2.60;90.30;;;;;;5113594;28;20087;-76
2022/12/11 09:26:47;;;;;;;22.50;8.15;;;2.70;90.30;;;;;;5113184;28;20032;-76
2022/12/11 09:29:13;;;;;;;20.45;8.30;;;2.70;90.40;;;;;;5113002;28;20032;-76
2022/12/11 09:31:39;;;;;;;21.33;7.75;;;2.80;90.40;;;;;;5114054;28;20083;-76
2022/12/11 09:34:06;;;;;;;20.20;8.85;;;2.80;90.30;;;;;;5113872;28;20038;-76
2022/12/11 09:36:32;;;;;;;18.92;7.95;;;2.80;90.30;;;;;;5113837;28;20044;-76
2022/12/11 09:39:04;;;;;;;17.67;7.45;;;2.80;90.20;;;;;;5113828;28;20490;-76
2022/12/11 09:41:42;;;;;;;15.60;6.93;;;2.80;90.00;;;;;;5113688;28;20032;-75
2022/12/11 09:44:45;;;;;;;15.98;7.47;;;2.80;90.10;;;;;;5112778;28;20024;-76
2022/12/11 09:47:37;;;;;;;15.63;6.68;;;2.70;90.00;;;;;;5113764;28;20027;-76
2022/12/11 09:50:09;;;;;;;16.30;6.10;;;2.60;90.10;;;;;;5112593;28;20062;-76
2022/12/11 09:53:15;;;;;;;7.28;3.95;;;2.60;90.20;;;;;;5112593;28;20096;-76
2022/12/11 09:56:02;;;;;;;6.72;3.50;;;2.60;90.20;;;;;;5113574;28;20024;-77
2022/12/11 09:59:02;;;;;;;7.57;4.05;;;2.50;90.20;;;;;;5113595;28;20483;-76
2022/12/11 10:01:56;;;;;;;14.48;6.80;;;2.50;90.40;;;;;;5113625;28;20044;-76
2022/12/11 10:04:40;;;;;;;17.83;6.78;;;2.50;90.40;;;;;;5113526;28;20046;-76
2022/12/11 10:07:13;;;;;;;22.88;7.22;;;2.40;90.60;;;;;;5112514;28;20040;-76
2022/12/11 10:09:50;;;;;;;15.85;6.03;;;2.50;90.70;;;;;;5113411;28;20060;-77
2022/12/11 10:12:21;;;;;;;16.42;6.20;;;2.50;90.70;;;;;;5113585;28;20020;-77
2022/12/11 10:15:05;;;;;;;12.17;5.17;;;2.40;90.80;;;;;;5113608;28;20020;-77
2022/12/11 10:17:32;;;;;;;12.75;4.85;;;2.50;90.80;;;;;;5113565;28;20016;-77
2022/12/11 10:20:09;;;;;;;12.82;5.38;;;2.50;90.70;;;;;;5095612;28;20025;-77
2022/12/11 10:22:35;;;;;;;15.35;6.15;;;2.50;90.60;;;;;;5112368;28;20102;-77
2022/12/11 10:25:18;;;;;;;13.93;6.93;;;2.50;90.80;;;;;;5112410;28;20036;-77
2022/12/11 10:27:44;;;;;;;13.30;5.57;;;2.50;90.90;;;;;;5113329;28;20080;-77
2022/12/11 10:30:17;;;;;;;14.30;6.35;;;2.50;90.80;;;;;;5112287;28;20020;-77
2022/12/11 10:33:06;;;;;;;18.13;7.03;;;2.50;90.50;;;;;;5113426;28;20028;-77
2022/12/11 10:35:43;;;;;;;14.32;5.57;;;2.50;90.40;;;;;;5113930;28;20031;-76
2022/12/11 10:38:14;;;;;;;12.00;5.65;;;2.50;90.70;;;;;;5117386;28;20028;-77
2022/12/11 10:40:52;;;;;;;17.83;7.47;;;2.50;90.70;;;;;;5117123;28;20028;-77
2022/12/11 10:43:18;;;;;;;15.20;6.60;;;2.60;90.70;;;;;;5117274;28;20027;-77
2022/12/11 10:45:52;;;;;;;15.25;6.43;;;2.60;90.70;;;;;;5099095;28;20028;-77
2022/12/11 10:48:17;;;;;;;19.70;6.75;;;2.60;90.70;;;;;;5117027;28;20024;-77
2022/12/11 10:50:54;;;;;;;17.02;8.30;;;2.60;90.50;;;;;;5098826;28;20123;-77
2022/12/11 10:53:20;;;;;;;6.43;3.08;;;2.60;90.40;;;;;;5116954;28;20020;-77
2022/12/11 10:55:47;;;;;;;11.40;4.50;;;2.60;90.50;;;;;;5116833;28;20032;-77
2022/12/11 10:58:24;;;;;;;17.48;6.68;;;2.50;90.50;;;;;;5115762;28;20038;-77
2022/12/11 11:01:13;;;;;;;17.25;5.97;;;2.50;90.50;;;;;;5116891;28;20024;-77
2022/12/11 11:04:00;;;;;;;17.20;8.45;;;2.50;90.70;;;;;;5116754;28;20012;-77
2022/12/11 11:06:26;;;;;;;20.25;7.65;;;2.50;90.70;;;;;;5116861;28;20031;-77
2022/12/11 11:08:55;;;;;;;13.40;5.40;;;2.60;90.90;;;;;;5115668;28;20490;-77
2022/12/11 11:11:39;;;;;;;17.95;6.80;;;2.60;90.90;;;;;;5116566;28;20107;-77
2022/12/11 11:14:14;;;;;;;16.73;6.13;;;2.60;90.60;;;;;;5115776;28;20048;-77
2022/12/11 11:16:42;;;;;;;15.65;6.90;;;2.60;90.70;;;;;;5116531;28;20023;-77
2022/12/11 11:19:24;;;;;;;11.23;4.80;;;2.60;90.70;;;;;;5115464;28;20016;-77
2022/12/11 11:21:52;;;;;;;;;;;2.70;90.40;;;;;;5116968;28;20077;-77
2022/12/11 11:24:49;;;;;;;15.07;7.45;;;2.70;90.30;;;;;;5116454;28;19904;-77
2022/12/11 11:27:24;;;;;;;14.10;6.38;;;2.60;90.60;;;;;;5112153;28;20036;-77
2022/12/11 11:29:59;;;;;;;17.35;6.80;;;2.60;90.60;;;;;;5115199;28;20031;-77
2022/12/11 11:32:37;;;;;;;14.15;6.07;;;2.60;90.60;;;;;;5116200;28;20032;-77
2022/12/11 11:35:10;;;;;;;17.92;7.35;;;2.70;90.60;;;;;;5115149;28;20060;-76
2022/12/11 11:37:37;;;;;;;19.52;8.15;;;2.70;90.50;;;;;;5115072;28;20035;-76
2022/12/11 11:40:15;;;;;;;18.08;6.60;;;2.70;90.60;;;;;;5115076;28;20116;-76
2022/12/11 11:43:14;;;;;;;16.20;7.00;;;2.70;90.40;;;;;;5116009;28;20045;-76
2022/12/11 11:45:43;;;;;;;12.23;5.65;;;2.80;90.50;;;;;;5082705;28;20058;-76
2022/12/11 11:48:27;;;;;;;16.05;7.55;;;2.80;90.30;;;;;;5115549;28;20464;-76
2022/12/11 11:50:53;;;;;;;25.95;8.90;;;2.70;90.10;;;;;;5115640;28;20070;-76
2022/12/11 11:53:36;;;;;;;19.83;8.02;;;2.80;90.10;;;;;;5097873;28;20024;-76
2022/12/11 11:56:22;;;;;;;15.45;6.65;;;2.70;90.20;;;;;;5115800;28;20035;-76
2022/12/11 11:59:04;;;;;;;19.67;6.05;;;2.80;90.30;;;;;;5115733;28;20027;-76
2022/12/11 12:01:30;;;;;;;14.70;6.72;;;2.70;90.00;;;;;;5115603;28;20062;-76
2022/12/11 12:03:57;;;;;;;10.18;4.22;;;2.70;90.20;;;;;;5114652;28;20027;-76
2022/12/11 12:06:58;;;;;;;15.65;5.78;;;2.70;90.30;;;;;;5115549;28;20073;-76
2022/12/11 12:09:40;;;;;;;15.77;6.50;;;2.70;90.10;;;;;;5016977;28;20584;-75
2022/12/11 12:12:25;;;;;;;10.02;4.47;;;2.70;90.30;;;;;;5107978;28;20024;-76
2022/12/11 12:15:19;;;;;;;18.08;6.63;;;2.60;90.00;;;;;;5115576;28;20035;-75
2022/12/11 12:17:53;;;;;;;11.60;4.68;;;2.60;90.40;;;;;;5107673;28;20137;-76
2022/12/11 12:20:28;;;;;;;18.70;6.75;;;2.60;90.40;;;;;;5115211;28;20047;-76
2022/12/11 12:23:02;;;;;;;15.52;5.80;;;2.60;90.40;;;;;;5115254;28;20020;-76
2022/12/11 12:25:41;;;;;;;16.35;6.97;;;2.70;90.20;;;;;;5115211;28;20020;-75
2022/12/11 12:28:38;;;;;;;10.18;4.32;;;2.70;90.20;;;;;;5115130;28;20042;-76
2022/12/11 12:31:24;;;;;;;9.32;4.80;;;2.70;89.70;;;;;;5114000;28;20028;-76
2022/12/11 12:33:58;;;;;;;14.52;4.75;;;2.70;90.00;;;;;;5114426;28;20060;-75
2022/12/11 12:36:38;;;;;;;17.65;6.40;;;2.60;89.40;;;;;;5114947;28;20031;-76
2022/12/11 12:39:20;;;;;;;13.77;6.68;;;2.60;90.20;;;;;;5114914;28;20024;-75
2022/12/11 12:42:41;;;;;;;16.77;7.45;;;2.60;90.00;;;;;;5114938;28;20028;-75
2022/12/11 12:45:21;;;;;;;12.68;5.25;;;2.70;90.40;;;;;;5088289;28;20040;-76
2022/12/11 12:47:47;;;;;;;16.15;5.70;;;2.70;89.90;;;;;;5113776;28;20016;-76
2022/12/11 12:50:16;;;;;;;12.80;5.88;;;2.70;90.10;;;;;;5113607;28;20052;-76
2022/12/11 12:52:43;;;;;;;15.82;6.43;;;2.70;90.00;;;;;;5114628;28;20024;-75
2022/12/11 12:55:15;;;;;;;13.60;5.65;;;2.80;90.20;;;;;;5114570;28;20087;-75
2022/12/11 12:57:53;;;;;;;15.75;5.63;;;2.70;89.80;;;;;;5114346;28;20020;-76
2022/12/11 13:00:48;;;;;;;16.70;5.55;;;2.80;90.10;;;;;;5114180;28;20046;-76
2022/12/11 13:03:19;;;;;;;15.05;6.57;;;2.80;90.00;;;;;;5096846;28;20044;-76
2022/12/11 13:06:06;;;;;;;19.77;7.20;;;2.80;89.80;;;;;;5113408;28;20016;-76
2022/12/11 13:08:45;;;;;;;16.13;6.13;;;2.80;89.40;;;;;;5114279;28;20262;-76
2022/12/11 13:11:14;;;;;;;15.60;6.15;;;2.90;89.60;;;;;;5113294;28;20027;-76